Time;durP1;ratioP1;P1;durP2;ratioP2;P2;SDS_P1;SDS_P2;PMS_P1;PMS_P2;Temp;Humidity;BMP_temperature;BMP_pressure;BME280_temperature;BME280_humidity;BME280_pressure;Samples;Min_cycle;Max_cycle;Signal;HPM_P1;HPM_P2
2022/04/19 00:00:56;;;;;;;10.60;2.55;;;;;;;3.60;70.29;97085.16;5048513;28;20041;-66
2022/04/19 00:03:23;;;;;;;5.50;2.25;;;;;;;3.54;69.92;97086.84;5051313;28;20041;-66
2022/04/19 00:05:49;;;;;;;5.53;2.58;;;;;;;3.51;70.46;97082.75;5048527;28;20056;-66
2022/04/19 00:08:16;;;;;;;4.00;2.10;;;;;;;3.55;70.34;97085.00;5059987;28;20106;-66
2022/04/19 00:10:43;;;;;;;4.35;2.20;;;;;;;3.54;70.81;97084.16;5058607;28;20657;-67
2022/04/19 00:13:11;;;;;;;3.90;1.95;;;;;;;3.51;70.43;97084.63;5057472;28;20032;-67
2022/04/19 00:15:38;;;;;;;6.57;2.20;;;;;;;3.56;70.08;97076.75;5058001;28;20120;-66
2022/04/19 00:18:07;;;;;;;4.10;2.15;;;;;;;3.52;69.97;97080.91;5050401;28;20095;-66
2022/04/19 00:20:34;;;;;;;3.58;2.22;;;;;;;3.40;70.47;97067.38;5048530;28;20535;-66
2022/04/19 00:23:03;;;;;;;5.53;2.53;;;;;;;3.26;71.50;97071.94;5048830;28;20156;-66
2022/04/19 00:25:29;;;;;;;4.32;2.25;;;;;;;3.28;71.24;97063.72;5058675;28;20057;-66
2022/04/19 00:27:56;;;;;;;5.18;2.13;;;;;;;3.21;71.20;97063.75;5060186;28;20063;-66
2022/04/19 00:30:22;;;;;;;4.32;2.28;;;;;;;3.19;71.38;97055.09;5053490;28;20079;-66
2022/04/19 00:32:49;;;;;;;4.82;2.38;;;;;;;3.22;71.41;97058.19;5056865;28;20041;-66
2022/04/19 00:35:16;;;;;;;4.22;2.00;;;;;;;3.27;71.18;97048.69;5060806;28;20043;-66
2022/04/19 00:37:43;;;;;;;3.58;2.13;;;;;;;3.17;71.51;97049.16;5046368;28;20037;-66
2022/04/19 00:40:10;;;;;;;5.30;2.28;;;;;;;3.17;71.51;97047.28;5046605;28;20048;-66
2022/04/19 00:42:37;;;;;;;4.88;2.28;;;;;;;3.19;71.37;97047.91;5055784;28;20098;-66
2022/04/19 00:45:07;;;;;;;4.82;2.10;;;;;;;3.22;71.69;97035.94;5059384;28;20528;-66
2022/04/19 00:47:34;;;;;;;5.03;2.28;;;;;;;3.21;71.41;97045.03;5055893;28;20489;-66
2022/04/19 00:50:07;;;;;;;4.22;2.17;;;;;;;3.20;71.30;97032.66;5066689;28;20032;-66
2022/04/19 00:52:37;;;;;;;5.05;2.10;;;;;;;3.14;71.83;97042.38;5057176;28;20072;-66
2022/04/19 00:55:07;;;;;;;5.20;2.30;;;;;;;3.02;71.95;97038.72;5048545;28;20106;-66
2022/04/19 00:57:38;;;;;;;4.78;2.50;;;;;;;2.99;72.33;97035.41;5045310;28;20075;-66
2022/04/19 01:00:10;;;;;;;3.92;2.30;;;;;;;2.92;72.40;97034.63;5046872;28;20045;-66
2022/04/19 01:02:40;;;;;;;4.78;2.50;;;;;;;2.83;72.60;97022.50;5055031;28;20132;-66
2022/04/19 01:05:10;;;;;;;7.20;2.58;;;;;;;2.83;72.69;97020.66;5059031;28;20128;-66
2022/04/19 01:07:39;;;;;;;5.53;2.75;;;;;;;2.92;72.58;97025.78;5051901;28;20139;-66
2022/04/19 01:10:10;;;;;;;4.60;2.28;;;;;;;2.90;72.61;97027.81;5053242;28;20045;-66
2022/04/19 01:15:22;;;;;;;4.50;2.17;;;;;;;2.89;72.79;97019.00;5046751;28;20288;-66
2022/04/19 01:18:01;;;;;;;5.28;2.30;;;;;;;2.93;72.53;97016.72;5047937;28;20045;-66
2022/04/19 01:20:29;;;;;;;5.85;2.55;;;;;;;3.04;71.79;97017.91;5046806;28;20124;-66
2022/04/19 01:22:58;;;;;;;5.15;2.40;;;;;;;2.98;72.15;97019.56;5050885;28;20041;-67
2022/04/19 01:25:27;;;;;;;4.00;2.20;;;;;;;2.95;72.13;97020.81;5046000;28;20045;-66
2022/04/19 01:27:55;;;;;;;5.60;2.38;;;;;;;2.92;72.06;97017.75;5049069;28;20437;-67
2022/04/19 01:30:21;;;;;;;4.28;2.22;;;;;;;2.98;72.35;97025.75;5047108;28;20045;-66
2022/04/19 01:32:51;;;;;;;6.60;2.40;;;;;;;2.95;72.44;97023.50;5060793;28;20036;-67
2022/04/19 01:35:19;;;;;;;5.72;2.63;;;;;;;2.95;72.77;97023.50;5049445;28;20061;-67
2022/04/19 01:37:52;;;;;;;4.80;2.58;;;;;;;2.94;73.01;97019.19;5045834;28;20393;-67
2022/04/19 01:40:39;;;;;;;5.03;2.78;;;;;;;2.73;73.05;97015.75;5049488;28;20045;-67
2022/04/19 01:43:09;;;;;;;3.88;2.20;;;;;;;2.64;73.44;97011.66;5056358;28;20123;-67
2022/04/19 01:45:49;;;;;;;6.57;2.40;;;;;;;2.66;73.68;97009.63;5058973;28;20068;-67
2022/04/19 01:48:21;;;;;;;4.00;2.20;;;;;;;2.73;73.29;97004.25;5055896;28;20036;-67
2022/04/19 01:50:48;;;;;;;4.97;2.60;;;;;;;2.80;73.18;97004.22;5062747;28;20499;-67
2022/04/19 01:53:15;;;;;;;5.57;2.70;;;;;;;2.84;72.56;97000.09;5064220;28;20942;-67
2022/04/19 01:55:44;;;;;;;7.30;2.78;;;;;;;2.77;72.87;97000.13;5062988;28;20097;-67
2022/04/19 01:58:29;;;;;;;4.28;2.30;;;;;;;2.73;74.06;96998.91;5053552;28;20055;-67
2022/04/19 02:00:56;;;;;;;3.67;2.20;;;;;;;2.69;72.95;97003.03;5058998;28;20427;-67
2022/04/19 02:03:23;;;;;;;4.25;2.53;;;;;;;2.54;73.84;97001.41;5048971;28;20041;-67
2022/04/19 02:05:50;;;;;;;4.50;2.20;;;;;;;2.51;73.96;96993.00;5054516;28;20053;-67
2022/04/19 02:08:16;;;;;;;5.35;2.40;;;;;;;2.50;73.82;96994.84;5051407;28;20103;-67
2022/04/19 02:10:44;;;;;;;5.05;3.05;;;;;;;2.55;74.08;96991.56;5054917;28;20041;-67
2022/04/19 02:13:13;;;;;;;5.03;2.90;;;;;;;2.54;74.21;96989.91;5058019;28;20044;-67
2022/04/19 02:16:09;;;;;;;6.03;2.75;;;;;;;2.53;73.87;97001.63;5044178;28;20053;-67
2022/04/19 02:18:37;;;;;;;5.43;2.58;;;;;;;2.53;73.63;97004.28;5054985;28;20175;-67
2022/04/19 02:21:03;;;;;;;6.13;2.70;;;;;;;2.56;73.87;96999.38;5058157;28;20037;-67
2022/04/19 02:23:30;;;;;;;4.50;2.80;;;;;;;2.55;74.01;96991.56;5054880;28;20144;-67
2022/04/19 02:25:57;;;;;;;5.60;2.78;;;;;;;2.52;73.99;96999.97;5064122;28;20040;-67
2022/04/19 02:28:24;;;;;;;5.93;2.90;;;;;;;2.51;73.87;96995.66;5057182;28;20072;-67
2022/04/19 02:31:05;;;;;;;6.53;2.75;;;;;;;2.55;73.91;96987.00;5044688;28;20052;-65
2022/04/19 02:33:33;;;;;;;5.30;2.30;;;;;;;2.59;73.63;96990.91;5045421;28;20056;-66
2022/04/19 02:36:02;;;;;;;6.40;2.28;;;;;;;2.62;72.91;96987.00;5043783;28;20519;-66
2022/04/19 02:38:28;;;;;;;5.05;2.70;;;;;;;2.61;73.40;96988.03;5045357;28;20052;-65
2022/04/19 02:40:56;;;;;;;6.25;2.90;;;;;;;2.57;73.57;96982.28;5058221;28;20094;-65
2022/04/19 02:43:23;;;;;;;5.40;2.60;;;;;;;2.49;73.56;96982.50;5056753;28;20535;-65
2022/04/19 02:45:54;;;;;;;6.40;2.60;;;;;;;2.40;74.13;96975.75;5044478;28;20036;-65
2022/04/19 02:48:30;;;;;;;5.43;2.45;;;;;;;2.58;73.41;96975.09;5053585;28;20048;-65
2022/04/19 02:50:58;;;;;;;3.42;1.90;;;;;;;2.64;72.75;96974.25;5058819;28;20041;-66
2022/04/19 02:53:24;;;;;;;6.25;2.55;;;;;;;2.63;72.76;96969.94;5061959;28;20055;-65
2022/04/19 02:55:51;;;;;;;5.88;2.33;;;;;;;2.62;72.98;96970.97;5064004;28;20037;-65
2022/04/19 02:58:18;;;;;;;4.68;2.90;;;;;;;2.45;73.50;96979.44;5048384;28;20110;-65
2022/04/19 03:00:44;;;;;;;4.55;2.35;;;;;;;2.34;74.19;96970.22;5044816;28;20095;-66
2022/04/19 03:03:16;;;;;;;6.53;2.47;;;;;;;2.52;73.88;96971.41;5056177;28;20049;-65
2022/04/19 03:05:43;;;;;;;4.85;2.20;;;;;;;2.43;73.79;96972.69;5045319;28;20055;-65
2022/04/19 03:08:10;;;;;;;4.88;2.50;;;;;;;2.45;73.88;96971.44;5051323;28;20105;-66
2022/04/19 03:10:37;;;;;;;4.57;2.35;;;;;;;2.31;73.41;96962.63;5056230;28;20700;-65
2022/04/19 03:13:04;;;;;;;4.45;2.50;;;;;;;2.09;74.75;96972.72;5045384;28;20041;-65
2022/04/19 03:15:36;;;;;;;4.75;2.13;;;;;;;1.80;75.73;96961.44;5051797;28;20041;-65
2022/04/19 03:18:02;;;;;;;5.38;2.75;;;;;;;1.53;77.29;96964.09;5048387;28;20051;-65
2022/04/19 03:20:32;;;;;;;4.25;2.45;;;;;;;1.79;76.61;96960.63;5061183;28;20041;-65
2022/04/19 03:28:40;;;;;;;5.50;2.72;;;;;;;2.13;75.05;96960.59;5048443;28;20033;-65
2022/04/19 03:31:07;;;;;;;4.70;2.60;;;;;;;2.05;75.16;96958.13;5046351;28;20047;-64
2022/04/19 03:33:38;;;;;;;5.53;2.80;;;;;;;2.07;74.93;96961.44;5059346;28;20458;-65
2022/04/19 03:36:08;;;;;;;3.95;2.20;;;;;;;2.05;75.39;96960.81;5055453;28;20470;-65
2022/04/19 03:38:35;;;;;;;4.15;2.20;;;;;;;2.05;74.50;96955.47;5061992;28;20052;-65
2022/04/19 03:41:02;;;;;;;5.45;2.50;;;;;;;1.98;75.15;96954.66;5043137;28;20063;-65
2022/04/19 03:43:32;;;;;;;6.68;3.33;;;;;;;1.88;75.86;96960.41;5052649;28;20072;-65
2022/04/19 03:45:59;;;;;;;6.82;2.92;;;;;;;1.79;76.18;96957.97;5050079;28;20044;-66
2022/04/19 03:48:27;;;;;;;4.72;2.90;;;;;;;1.74;76.18;96956.94;5073971;28;20246;-65
2022/04/19 03:50:54;;;;;;;5.53;2.88;;;;;;;1.66;76.82;96958.75;5060614;28;20120;-65
2022/04/19 03:53:21;;;;;;;8.52;3.35;;;;;;;1.64;76.71;96955.50;5061923;28;20116;-65
2022/04/19 03:55:47;;;;;;;6.20;2.85;;;;;;;1.35;77.68;96964.69;5049452;28;20623;-65
2022/04/19 03:58:14;;;;;;;7.28;2.72;;;;;;;1.28;77.77;96954.84;5044660;28;20040;-65
2022/04/19 04:00:40;;;;;;;5.30;2.40;;;;;;;1.27;78.63;96971.03;5054604;28;20504;-65
2022/04/19 04:03:08;;;;;;;4.75;2.70;;;;;;;1.37;78.48;96971.47;5051126;28;20044;-65
2022/04/19 04:05:35;;;;;;;5.00;2.75;;;;;;;1.40;77.59;96965.72;5054613;28;20464;-65
2022/04/19 04:08:01;;;;;;;7.63;2.88;;;;;;;1.30;78.00;96971.44;5048775;28;20053;-65
2022/04/19 04:10:35;;;;;;;5.97;3.35;;;;;;;1.30;78.05;96974.13;5053798;28;20522;-65
2022/04/19 04:13:04;;;;;;;8.18;3.35;;;;;;;1.13;78.67;96971.00;5063804;28;20135;-65
2022/04/19 04:15:33;;;;;;;5.72;2.92;;;;;;;1.01;79.12;96972.63;5065136;28;20523;-65
2022/04/19 04:18:00;;;;;;;6.03;2.90;;;;;;;0.90;79.67;96971.34;5060782;28;20423;-65
2022/04/19 04:20:28;;;;;;;8.63;3.35;;;;;;;0.97;79.47;96974.88;5052019;28;20040;-64
2022/04/19 04:22:54;;;;;;;7.47;3.70;;;;;;;0.98;79.54;96973.84;5063603;28;20048;-64
2022/04/19 04:25:22;;;;;;;9.32;4.22;;;;;;;0.93;79.37;96972.78;5060024;28;20136;-65
2022/04/19 04:27:48;;;;;;;7.22;3.90;;;;;;;0.96;79.38;96977.72;5048938;28;20041;-65
2022/04/19 04:30:15;;;;;;;10.15;4.25;;;;;;;1.01;80.95;96980.63;5045037;28;20111;-65
2022/04/19 04:32:50;;;;;;;11.15;3.92;;;;;;;1.13;79.17;96979.00;5051001;28;20044;-65
2022/04/19 04:35:17;;;;;;;7.57;3.83;;;;;;;1.20;79.30;96975.53;5058542;28;20057;-65
2022/04/19 04:37:43;;;;;;;6.20;3.28;;;;;;;1.32;78.54;96981.13;5049197;28;20047;-64
2022/04/19 04:40:11;;;;;;;7.20;3.22;;;;;;;1.43;78.25;96968.00;5063924;28;20579;-64
2022/04/19 04:42:51;;;;;;;6.03;3.20;;;;;;;1.35;78.50;96981.53;5047639;28;20608;-64
2022/04/19 04:45:18;;;;;;;6.90;3.10;;;;;;;1.38;77.97;96978.47;5056008;28;20147;-65
2022/04/19 04:50:30;;;;;;;6.00;2.78;;;;;;;1.07;79.97;96977.13;5049931;28;20040;-64
2022/04/19 04:52:59;;;;;;;6.68;2.92;;;;;;;1.17;79.20;96980.25;5054014;28;20118;-65
2022/04/19 04:55:26;;;;;;;6.70;3.28;;;;;;;1.23;79.15;96975.97;5048000;28;20044;-65
2022/04/19 04:57:58;;;;;;;6.90;3.60;;;;;;;1.35;78.43;96973.53;5048051;28;20520;-65
2022/04/19 05:00:26;;;;;;;;;;;;;;;1.53;77.97;96974.78;5043938;28;20067;-65
2022/04/19 05:02:56;;;;;;;5.28;2.88;;;;;;;1.58;77.74;96974.97;5051449;28;19974;-65
2022/04/19 05:05:24;;;;;;;5.18;3.00;;;;;;;1.46;78.52;96973.94;5072838;28;20163;-65
2022/04/19 05:07:55;;;;;;;6.35;2.33;;;;;;;1.54;78.01;96973.75;5052500;28;20060;-65
2022/04/19 05:10:22;;;;;;;6.00;3.13;;;;;;;1.63;77.32;96974.38;5052125;28;20040;-65
2022/04/19 05:12:49;;;;;;;6.22;3.05;;;;;;;1.68;76.96;96972.75;5046937;28;20055;-65
2022/04/19 05:15:21;;;;;;;6.38;3.13;;;;;;;1.81;76.59;96977.25;5056658;28;20060;-65
2022/04/19 05:17:49;;;;;;;6.25;3.08;;;;;;;1.84;76.55;96970.66;5045357;28;20052;-65
2022/04/19 05:20:16;;;;;;;7.78;2.90;;;;;;;1.83;76.57;96978.91;5054945;28;20040;-65
2022/04/19 05:22:42;;;;;;;5.80;2.60;;;;;;;1.79;77.07;96973.13;5070596;28;20044;-65
2022/04/19 05:25:10;;;;;;;6.53;3.05;;;;;;;1.74;77.38;96968.44;5053565;28;20041;-65
2022/04/19 05:27:37;;;;;;;5.55;3.25;;;;;;;1.86;77.74;96975.81;5049916;28;20891;-66
2022/04/19 05:30:04;;;;;;;6.10;2.78;;;;;;;2.00;77.19;96971.28;5049871;28;20048;-65
2022/04/19 05:32:31;;;;;;;5.78;3.25;;;;;;;2.19;75.98;96977.63;5061848;28;20045;-65
2022/04/19 05:34:58;;;;;;;7.10;3.80;;;;;;;2.31;76.24;96988.50;5044526;28;20175;-65
2022/04/19 05:37:24;;;;;;;9.07;3.60;;;;;;;2.42;75.44;96984.38;5051934;28;20045;-65
2022/04/19 05:39:51;;;;;;;6.20;3.45;;;;;;;2.55;75.67;96980.84;5064183;28;20059;-65
2022/04/19 05:42:18;;;;;;;11.13;3.35;;;;;;;2.78;74.87;96987.56;5048524;28;20083;-65
2022/04/19 05:44:47;;;;;;;6.97;3.75;;;;;;;3.04;74.25;96983.13;5048230;28;20057;-65
2022/04/19 05:47:15;;;;;;;6.35;2.90;;;;;;;3.23;73.34;96992.94;5053588;28;20048;-65
2022/04/19 05:49:42;;;;;;;5.38;2.85;;;;;;;3.44;72.95;96992.81;5049172;28;20049;-66
2022/04/19 05:52:10;;;;;;;8.00;3.22;;;;;;;3.60;72.09;96994.97;5059149;28;20041;-66
2022/04/19 05:54:42;;;;;;;6.57;3.55;;;;;;;3.80;71.22;96988.66;5054774;28;20044;-66
2022/04/19 05:57:11;;;;;;;5.43;2.88;;;;;;;3.95;70.83;96980.31;5062202;28;20124;-65
2022/04/19 05:59:38;;;;;;;8.35;3.42;;;;;;;4.04;70.70;96986.19;5048231;28;20586;-65
2022/04/19 06:04:53;;;;;;;5.88;3.20;;;;;;;4.33;69.36;96993.75;5069043;28;20183;-65
2022/04/19 06:07:30;;;;;;;6.47;3.08;;;;;;;4.44;69.46;96985.00;5048689;28;20057;-65
2022/04/19 06:10:04;;;;;;;8.23;3.55;;;;;;;4.52;69.08;96991.94;5065803;28;20085;-65
2022/04/19 06:12:32;;;;;;;5.72;3.10;;;;;;;4.60;69.28;96997.00;5049748;28;20075;-65
2022/04/19 06:15:01;;;;;;;6.95;3.25;;;;;;;4.66;69.26;96988.06;5054831;28;20101;-66
2022/04/19 06:17:32;;;;;;;6.80;3.20;;;;;;;4.87;69.84;96995.88;5050307;28;20059;-65
2022/04/19 06:20:05;;;;;;;5.60;3.30;;;;;;;5.00;70.11;96989.53;5052889;28;20124;-65
2022/04/19 06:22:33;;;;;;;6.25;3.40;;;;;;;5.10;69.58;96984.47;5060861;28;20106;-64
2022/04/19 06:25:05;;;;;;;8.18;3.60;;;;;;;5.14;69.56;96988.34;5071147;28;20040;-65
2022/04/19 06:27:31;;;;;;;6.63;3.65;;;;;;;5.18;69.64;96986.00;5060777;28;20343;-65
2022/04/19 06:29:59;;;;;;;6.80;3.67;;;;;;;5.26;68.30;96991.06;5053396;28;20473;-65
2022/04/19 06:32:25;;;;;;;6.00;3.33;;;;;;;5.43;67.85;96985.91;5061507;28;20051;-66
2022/04/19 06:34:55;;;;;;;6.47;3.78;;;;;;;5.65;68.24;96985.38;5070091;28;20191;-65
2022/04/19 06:37:24;;;;;;;6.30;3.55;;;;;;;5.82;68.29;96987.41;5063746;28;20675;-65
2022/04/19 06:40:01;;;;;;;9.50;3.55;;;;;;;6.02;67.96;96980.88;5078342;28;20047;-65
2022/04/19 06:42:29;;;;;;;9.05;3.67;;;;;;;6.24;67.85;96987.34;5064238;28;20040;-65
2022/04/19 06:45:28;;;;;;;8.57;3.60;;;;;;;6.53;67.68;96983.97;5056848;28;20098;-65
2022/04/19 06:48:02;;;;;;;8.50;3.83;;;;;;;6.73;67.74;96991.66;5055370;28;20076;-64
2022/04/19 06:50:33;;;;;;;8.45;3.60;;;;;;;6.88;66.83;96996.53;5055914;28;20051;-65
2022/04/19 06:53:07;;;;;;;6.68;3.90;;;;;;;7.01;66.33;96998.13;5066373;28;20064;-65
2022/04/19 06:55:52;;;;;;;6.65;2.80;;;;;;;7.15;65.50;96995.19;5044505;28;20099;-65
2022/04/19 06:58:19;;;;;;;7.25;3.55;;;;;;;7.23;65.36;96985.91;5053826;28;20055;-55
2022/04/19 07:00:46;;;;;;;7.18;3.60;;;;;;;7.30;65.92;96986.59;5067793;28;20046;-57
2022/04/19 07:03:14;;;;;;;5.82;3.08;;;;;;;7.49;66.01;96989.06;5071649;28;20094;-59
2022/04/19 07:05:52;;;;;;;4.57;2.70;;;;;;;7.61;64.87;96989.84;5074186;28;20062;-56
2022/04/19 07:08:19;;;;;;;5.72;2.80;;;;;;;7.65;63.20;96987.47;5050947;28;20044;-54
2022/04/19 07:10:45;;;;;;;6.78;2.80;;;;;;;7.72;63.19;96988.13;5059322;28;20076;-58
2022/04/19 07:13:31;;;;;;;4.65;2.42;;;;;;;7.84;64.31;96982.66;5058637;28;20454;-57
2022/04/19 07:15:58;;;;;;;5.03;2.70;;;;;;;7.99;62.26;96978.63;5051933;28;20040;-59
2022/04/19 07:18:25;;;;;;;7.85;2.65;;;;;;;8.12;61.64;96975.59;5059681;28;20670;-62
2022/04/19 07:26:37;;;;;;;5.72;2.38;;;;;;;8.44;58.73;96985.75;5048987;28;20049;-59
2022/04/19 07:29:07;;;;;;;4.00;2.35;;;;;;;8.56;55.22;96982.19;5054646;28;20098;-58
2022/04/19 07:31:34;;;;;;;5.75;2.75;;;;;;;8.79;53.87;96983.00;5044342;28;20068;-61
2022/04/19 07:34:05;;;;;;;7.18;2.47;;;;;;;8.90;51.66;96984.78;5047665;28;20049;-68
2022/04/19 07:36:35;;;;;;;5.57;2.78;;;;;;;8.94;52.29;96983.22;5048832;28;20045;-69
2022/04/19 07:39:05;;;;;;;5.25;2.40;;;;;;;9.05;52.54;96983.34;5045504;28;20160;-70
2022/04/19 07:41:43;;;;;;;5.40;2.78;;;;;;;9.20;52.46;96986.22;5044242;28;20040;-63
2022/04/19 07:44:15;;;;;;;4.97;2.35;;;;;;;9.32;50.92;96983.38;5049430;28;20067;-64
2022/04/19 07:46:43;;;;;;;6.13;2.30;;;;;;;9.34;50.05;96980.44;5048345;28;20372;-63
2022/04/19 07:49:11;;;;;;;5.15;2.50;;;;;;;9.48;48.90;96973.53;5053426;28;20045;-63
2022/04/19 07:51:39;;;;;;;8.18;2.92;;;;;;;9.51;48.43;96969.50;5075219;28;20045;-64
2022/04/19 07:54:06;;;;;;;7.95;3.08;;;;;;;9.60;48.44;96972.59;5045586;28;20554;-62
2022/04/19 07:56:33;;;;;;;5.15;2.80;;;;;;;9.58;49.21;96972.03;5050636;28;20110;-68
2022/04/19 07:59:00;;;;;;;5.43;2.80;;;;;;;9.67;49.56;96966.97;5069832;28;20523;-69
2022/04/19 08:01:31;;;;;;;5.93;3.10;;;;;;;9.86;49.16;96970.94;5061473;28;20530;-69
2022/04/19 08:03:57;;;;;;;5.13;2.85;;;;;;;10.12;48.79;96964.91;5051281;28;20061;-64
2022/04/19 08:06:24;;;;;;;6.28;2.75;;;;;;;10.43;47.63;96970.53;5070364;28;20051;-69
2022/04/19 08:08:51;;;;;;;6.28;2.53;;;;;;;10.62;47.23;96968.25;5052293;28;20049;-69
2022/04/19 08:11:18;;;;;;;5.07;2.75;;;;;;;10.73;47.90;96969.09;5056881;28;20044;-63
2022/04/19 08:13:46;;;;;;;6.13;3.00;;;;;;;10.85;47.21;96974.34;5046324;28;20092;-68
2022/04/19 08:16:13;;;;;;;5.68;2.40;;;;;;;10.93;47.24;96979.25;5045832;28;20048;-69
2022/04/19 08:18:40;;;;;;;5.75;2.65;;;;;;;11.36;46.36;96967.47;5053013;28;20041;-68
2022/04/19 08:21:07;;;;;;;5.30;2.30;;;;;;;11.43;46.69;96969.94;5045141;28;20041;-70
2022/04/19 08:23:34;;;;;;;9.02;2.55;;;;;;;11.65;44.74;96971.59;5044451;28;20060;-69
2022/04/19 08:26:05;;;;;;;4.05;2.10;;;;;;;11.62;44.00;96964.81;5052197;28;20170;-69
2022/04/19 08:28:32;;;;;;;4.80;2.55;;;;;;;11.54;44.15;96963.44;5048690;28;20056;-69
2022/04/19 08:30:59;;;;;;;9.77;2.58;;;;;;;11.75;45.07;96968.88;5043393;28;20052;-70
2022/04/19 08:33:29;;;;;;;5.03;2.47;;;;;;;11.75;43.46;96962.66;5060611;28;20051;-68
2022/04/19 08:35:57;;;;;;;5.20;2.67;;;;;;;11.76;44.48;96970.50;5050441;28;20040;-68
2022/04/19 08:38:26;;;;;;;5.30;2.80;;;;;;;11.86;44.08;96960.78;5052917;28;20147;-69
2022/04/19 08:40:53;;;;;;;8.75;2.53;;;;;;;11.97;43.29;96959.69;5054961;28;20520;-64
2022/04/19 08:43:21;;;;;;;4.88;1.98;;;;;;;11.99;41.57;96960.25;5050106;28;20049;-64
2022/04/19 08:45:48;;;;;;;5.03;2.47;;;;;;;12.27;40.64;96965.41;5046609;28;20037;-63
2022/04/19 08:48:16;;;;;;;5.72;2.38;;;;;;;12.30;40.72;96960.25;5053848;28;20052;-62
2022/04/19 08:50:49;;;;;;;5.22;1.88;;;;;;;12.51;39.93;96959.38;5055054;28;20219;-62
2022/04/19 08:58:45;;;;;;;6.22;1.98;;;;;;;12.46;38.80;96958.31;5058931;28;20064;-72
2022/04/19 09:01:13;;;;;;;3.85;1.70;;;;;;;12.33;38.83;96951.56;5051357;28;20044;-65
2022/04/19 09:03:41;;;;;;;4.35;2.40;;;;;;;12.48;40.59;96953.44;5054690;28;20203;-64
2022/04/19 09:06:08;;;;;;;3.53;1.90;;;;;;;12.75;38.81;96943.28;5056840;28;20561;-66
2022/04/19 09:08:35;;;;;;;4.70;1.65;;;;;;;12.78;38.50;96947.38;5050111;28;20122;-63
2022/04/19 09:11:08;;;;;;;2.53;1.50;;;;;;;12.75;36.74;96954.16;5050262;28;20443;-68
2022/04/19 09:13:35;;;;;;;4.53;1.92;;;;;;;12.61;37.66;96951.25;5055589;28;20124;-65
2022/04/19 09:16:06;;;;;;;8.02;2.67;;;;;;;12.69;39.06;96947.97;5048500;28;20062;-64
2022/04/19 09:18:35;;;;;;;3.88;1.42;;;;;;;12.70;38.38;96949.56;5066636;28;20107;-64
2022/04/19 09:21:04;;;;;;;8.00;2.47;;;;;;;12.80;37.30;96946.03;5063384;28;20110;-64
2022/04/19 09:23:34;;;;;;;3.55;1.50;;;;;;;13.04;36.28;96942.66;5060632;28;20040;-68
2022/04/19 09:26:05;;;;;;;3.50;1.75;;;;;;;12.99;37.61;96948.13;5057103;28;20126;-67
2022/04/19 09:28:34;;;;;;;5.38;1.90;;;;;;;12.99;35.04;96945.41;5060841;28;20071;-66
2022/04/19 09:31:08;;;;;;;4.57;1.80;;;;;;;12.96;35.95;96952.19;5055644;28;20308;-71
2022/04/19 09:33:35;;;;;;;4.13;1.60;;;;;;;12.96;33.79;96952.19;5049644;28;20040;-72
2022/04/19 09:36:03;;;;;;;5.38;1.92;;;;;;;13.02;35.07;96947.56;5052951;28;20287;-67
2022/04/19 09:38:44;;;;;;;4.05;1.67;;;;;;;12.98;35.43;96952.72;5055636;28;20127;-67
2022/04/19 09:41:14;;;;;;;3.07;1.47;;;;;;;13.04;33.74;96937.22;5052386;28;20790;-65
2022/04/19 09:44:07;;;;;;;4.38;1.70;;;;;;;13.08;35.63;96938.28;5051412;28;20080;-65
2022/04/19 09:46:36;;;;;;;4.05;1.90;;;;;;;13.18;35.37;96939.31;5043876;28;20050;-65
2022/04/19 09:49:03;;;;;;;4.28;1.77;;;;;;;13.24;33.96;96932.78;5049990;28;20044;-65
2022/04/19 09:51:31;;;;;;;4.70;1.92;;;;;;;13.24;35.62;96925.41;5045758;28;21368;-65
2022/04/19 09:53:58;;;;;;;5.00;1.95;;;;;;;13.36;35.41;96930.53;5044337;28;20577;-65
2022/04/19 09:56:34;;;;;;;4.47;1.92;;;;;;;13.33;35.57;96930.28;5048530;28;20049;-65
2022/04/19 09:59:17;;;;;;;6.13;1.80;;;;;;;13.30;34.99;96933.56;5042135;28;20052;-65
2022/04/19 10:10:03;;;;;;;5.35;1.92;;;;;;;13.40;34.11;96933.50;5053341;28;20045;-65
2022/04/19 10:12:31;;;;;;;6.78;2.05;;;;;;;13.31;34.77;96918.88;5059739;28;20409;-64
2022/04/19 10:14:59;;;;;;;4.90;1.98;;;;;;;13.42;35.10;96923.16;5050657;28;20055;-65
2022/04/19 10:17:27;;;;;;;5.50;2.50;;;;;;;13.58;36.10;96923.06;5046304;28;20147;-65
2022/04/19 10:19:54;;;;;;;5.88;2.30;;;;;;;13.62;35.85;96922.25;5045407;28;20292;-65
2022/04/19 10:22:20;;;;;;;6.13;2.05;;;;;;;13.67;35.68;96920.59;5046218;28;20060;-65
2022/04/19 10:24:52;;;;;;;6.05;2.53;;;;;;;13.64;33.98;96917.31;5073754;28;20523;-66
2022/04/19 10:27:28;;;;;;;4.93;2.38;;;;;;;13.45;33.50;96908.19;5055173;28;20596;-65
2022/04/19 10:29:55;;;;;;;6.45;2.47;;;;;;;13.61;35.88;96912.47;5060412;28;20418;-69
2022/04/19 10:32:33;;;;;;;6.75;2.67;;;;;;;13.68;36.51;96903.97;5041665;28;20037;-66
2022/04/19 10:35:02;;;;;;;5.45;2.85;;;;;;;13.69;36.62;96916.47;5054047;28;20122;-67
2022/04/19 10:37:29;;;;;;;5.22;2.05;;;;;;;13.77;36.11;96906.88;5053408;28;20044;-68
2022/04/19 10:39:58;;;;;;;6.93;2.58;;;;;;;13.92;36.53;96903.22;5047435;28;20047;-65
2022/04/19 10:42:28;;;;;;;7.65;2.33;;;;;;;13.96;35.94;96900.78;5058957;28;20047;-69
2022/04/19 10:44:55;;;;;;;4.93;2.33;;;;;;;14.05;36.03;96902.56;5072377;28;20048;-70
2022/04/19 10:47:23;;;;;;;5.70;2.45;;;;;;;14.13;37.20;96903.88;5066384;28;20050;-68
2022/04/19 10:50:00;;;;;;;6.97;2.67;;;;;;;14.17;37.01;96896.75;5077299;28;20104;-67
2022/04/19 10:52:44;;;;;;;5.03;2.42;;;;;;;14.34;37.07;96894.69;5065213;28;20033;-67
2022/04/19 10:55:14;;;;;;;6.20;3.03;;;;;;;14.28;36.94;96892.03;5080174;28;20044;-68
2022/04/19 11:00:34;;;;;;;9.43;3.00;;;;;;;14.31;37.24;96879.75;5063409;28;20045;-67
2022/04/19 11:03:29;;;;;;;6.07;2.67;;;;;;;14.53;37.47;96879.19;5063223;28;20041;-63
2022/04/19 11:05:58;;;;;;;5.65;2.80;;;;;;;14.67;36.32;96886.69;5053091;28;20067;-66
2022/04/19 11:08:24;;;;;;;6.75;3.30;;;;;;;14.80;36.45;96888.75;5056682;28;20562;-67
2022/04/19 11:10:57;;;;;;;5.68;3.17;;;;;;;14.74;36.19;96878.16;5063095;28;20067;-68
2022/04/19 11:13:29;;;;;;;5.88;3.00;;;;;;;14.73;36.50;96879.25;5064239;28;20439;-66
2022/04/19 11:15:57;;;;;;;8.18;3.30;;;;;;;14.66;36.72;96874.97;5056089;28;20044;-68
2022/04/19 11:18:28;;;;;;;5.68;3.00;;;;;;;14.71;36.84;96874.13;5066171;28;20048;-67
2022/04/19 11:21:05;;;;;;;6.20;3.20;;;;;;;14.85;36.31;96870.72;5067849;28;20051;-65
2022/04/19 11:23:44;;;;;;;5.00;2.30;;;;;;;14.95;36.00;96870.56;5063601;28;20037;-68
2022/04/19 11:26:40;;;;;;;8.27;3.00;;;;;;;15.01;35.24;96863.13;5068532;28;20414;-66
2022/04/19 11:29:12;;;;;;;4.40;2.47;;;;;;;14.99;35.02;96851.69;5052752;28;20906;-66
2022/04/19 11:31:45;;;;;;;7.25;2.80;;;;;;;15.07;34.71;96864.66;5073369;28;20048;-64
2022/04/19 11:34:12;;;;;;;5.47;2.90;;;;;;;15.20;34.52;96866.69;5061431;28;20055;-64
2022/04/19 11:36:38;;;;;;;5.10;2.85;;;;;;;15.32;34.32;96859.97;5070143;28;20123;-64
2022/04/19 11:39:05;;;;;;;6.03;2.90;;;;;;;15.11;33.77;96856.72;5055102;28;20098;-69
2022/04/19 11:46:45;;;;;;;5.13;2.85;;;;;;;15.57;35.09;96858.78;5063940;28;20044;-62
2022/04/19 11:49:26;;;;;;;6.07;3.30;;;;;;;15.78;33.22;96849.44;5063995;28;20270;-61
2022/04/19 11:52:07;;;;;;;6.93;3.20;;;;;;;15.96;33.39;96845.84;5074240;28;20044;-62
2022/04/19 11:54:33;;;;;;;7.20;3.37;;;;;;;15.79;32.92;96846.41;5068899;28;20724;-65
2022/04/19 11:57:07;;;;;;;7.57;3.20;;;;;;;16.00;33.31;96832.44;5054712;28;20053;-62
2022/04/19 11:59:36;;;;;;;5.15;2.78;;;;;;;16.06;31.71;96838.59;5070444;28;20043;-65
2022/04/19 12:02:05;;;;;;;5.65;2.70;;;;;;;16.06;31.41;96835.84;5077435;28;20047;-63
2022/04/19 12:04:31;;;;;;;5.57;2.78;;;;;;;15.91;31.89;96835.00;5061318;28;20044;-62
2022/04/19 12:07:03;;;;;;;7.82;3.03;;;;;;;16.16;32.28;96834.88;5063404;28;20090;-62
2022/04/19 12:09:31;;;;;;;7.28;3.30;;;;;;;16.11;32.04;96838.53;5047780;28;20049;-63
2022/04/19 12:12:03;;;;;;;6.80;3.03;;;;;;;16.24;31.48;96823.25;5063776;28;20048;-62
2022/04/19 12:14:31;;;;;;;6.68;3.50;;;;;;;16.40;31.47;96829.22;5063156;28;20040;-63
2022/04/19 12:17:06;;;;;;;6.55;3.10;;;;;;;16.37;31.61;96835.31;5060437;28;20079;-63
2022/04/19 12:19:34;;;;;;;5.95;3.20;;;;;;;16.74;31.25;96821.72;5069228;28;20098;-66
2022/04/19 12:22:13;;;;;;;7.30;3.63;;;;;;;16.77;31.07;96834.78;5079375;28;20070;-67
2022/04/19 12:24:44;;;;;;;7.22;3.30;;;;;;;16.55;31.51;96819.91;5073331;28;20044;-65
2022/04/19 12:27:11;;;;;;;7.43;4.15;;;;;;;16.74;30.68;96827.19;5071962;28;20040;-66
2022/04/19 12:30:01;;;;;;;6.72;3.03;;;;;;;16.71;30.21;96825.06;5057656;28;20110;-62
2022/04/19 12:32:52;;;;;;;6.18;2.70;;;;;;;16.38;31.08;96823.25;5057016;28;20072;-63